Terminal Aerodrome Forecast
Issued by NWS

Home | Current Version | Previous Version | Text Only | Print | Product List | Glossary On
Versions: 1 2 3 4 5 6 7 8 9 10 11 12 13 14 15 16 17 18 19 20 21 22
000
FTUS43 KAPX 251800 AAA
TAFTVC
TAF AMD
KTVC 251809Z 2518/2618 22005KT P6SM SCT040 SCT150 OVC230
     FM260100 VRB03KT P6SM VCSH SCT040 BKN080
     FM261000 27003KT P6SM VCSH OVC025=

USA.gov is the U.S. government's official web portal to all federal, state and local government web resources and services.